Time;durP1;ratioP1;P1;durP2;ratioP2;P2;SDS_P1;SDS_P2;PMS_P1;PMS_P2;Temp;Humidity;BMP_temperature;BMP_pressure;BME280_temperature;BME280_humidity;BME280_pressure;Samples;Min_cycle;Max_cycle;Signal;HPM_P1;HPM_P2
2022/03/29 00:00:30;;;;;;;29.80;19.10;;;7.10;99.90;;;;;;4991827;28;20572;-68
2022/03/29 00:03:19;;;;;;;29.20;19.40;;;7.20;99.90;;;;;;4992714;28;22098;-68
2022/03/29 00:06:07;;;;;;;26.13;18.30;;;7.10;99.90;;;;;;4990491;28;20630;-68
2022/03/29 00:08:55;;;;;;;27.23;19.83;;;7.10;99.90;;;;;;5000474;28;20579;-68
2022/03/29 00:11:44;;;;;;;26.40;19.73;;;7.10;99.90;;;;;;4995766;28;20491;-68
2022/03/29 00:14:32;;;;;;;27.43;19.00;;;7.10;99.90;;;;;;4990998;28;21000;-68
2022/03/29 00:17:22;;;;;;;26.30;19.00;;;7.10;99.90;;;;;;4990439;28;20547;-68
2022/03/29 00:20:10;;;;;;;28.30;20.90;;;7.10;99.90;;;;;;4997235;28;20488;-68
2022/03/29 00:22:58;;;;;;;28.17;18.27;;;7.10;99.90;;;;;;4991547;28;21375;-68
2022/03/29 00:25:46;;;;;;;27.80;19.50;;;7.10;99.90;;;;;;4992483;28;20578;-68
2022/03/29 00:28:35;;;;;;;26.00;20.53;;;7.10;99.90;;;;;;4984301;28;20480;-68
2022/03/29 00:31:23;;;;;;;25.43;18.70;;;7.10;99.90;;;;;;4999951;28;20459;-68
2022/03/29 00:34:12;;;;;;;31.53;19.27;;;7.10;99.90;;;;;;4997677;28;20449;-68
2022/03/29 00:37:00;;;;;;;29.57;21.00;;;7.00;99.90;;;;;;4995079;28;20472;-68
2022/03/29 00:39:49;;;;;;;30.33;21.57;;;7.10;99.90;;;;;;5000436;28;20861;-68
2022/03/29 00:42:37;;;;;;;28.73;19.73;;;7.10;99.90;;;;;;4993022;28;20644;-68
2022/03/29 00:45:25;;;;;;;31.03;21.10;;;7.10;99.90;;;;;;4992104;28;21233;-68
2022/03/29 00:48:14;;;;;;;34.00;22.20;;;7.10;99.90;;;;;;4998070;28;20491;-68
2022/03/29 00:51:04;;;;;;;28.57;20.40;;;7.10;99.90;;;;;;4997641;28;20607;-68
2022/03/29 00:53:52;;;;;;;30.80;21.60;;;7.10;99.90;;;;;;4992240;28;20460;-68
2022/03/29 00:56:40;;;;;;;28.17;19.50;;;7.10;99.90;;;;;;4980873;28;20453;-68
2022/03/29 00:59:30;;;;;;;32.03;20.30;;;7.20;99.90;;;;;;4999788;28;20535;-68
2022/03/29 01:02:18;;;;;;;30.67;19.10;;;7.20;99.90;;;;;;5000055;28;20531;-69
2022/03/29 01:05:07;;;;;;;28.33;20.47;;;7.20;99.90;;;;;;4996496;28;20838;-69
2022/03/29 01:07:57;;;;;;;27.50;19.20;;;7.10;99.90;;;;;;4990760;28;21011;-68
2022/03/29 01:10:45;;;;;;;29.10;20.60;;;7.20;99.90;;;;;;4986626;28;20516;-69
2022/03/29 01:13:34;;;;;;;26.13;19.43;;;7.20;99.90;;;;;;4994859;28;20437;-69
2022/03/29 01:19:29;;;;;;;32.33;19.47;;;7.20;99.90;;;;;;4994561;28;20515;-69
2022/03/29 01:22:19;;;;;;;28.67;19.97;;;7.20;99.90;;;;;;4994461;28;20955;-69
2022/03/29 01:25:08;;;;;;;29.83;20.80;;;7.20;99.90;;;;;;4986654;28;20608;-69
2022/03/29 01:27:57;;;;;;;31.57;19.90;;;7.20;99.90;;;;;;4999409;28;20833;-69
2022/03/29 01:30:45;;;;;;;28.03;19.47;;;7.20;99.90;;;;;;4999964;28;20909;-68
2022/03/29 01:33:34;;;;;;;25.77;19.07;;;7.20;99.90;;;;;;4997202;28;21943;-69
2022/03/29 01:36:22;;;;;;;25.07;19.10;;;7.20;99.90;;;;;;4992125;28;20503;-69
2022/03/29 01:39:12;;;;;;;20.30;16.50;;;7.20;99.90;;;;;;4986095;28;20574;-68
2022/03/29 01:42:00;;;;;;;27.30;19.10;;;7.20;99.90;;;;;;4998092;28;20532;-69
2022/03/29 01:44:49;;;;;;;26.17;18.17;;;7.20;99.90;;;;;;4999828;28;20566;-69
2022/03/29 01:47:37;;;;;;;22.93;16.77;;;7.20;99.90;;;;;;4997756;28;20471;-68
2022/03/29 01:50:26;;;;;;;23.43;17.17;;;7.20;99.90;;;;;;5002874;28;20960;-69
2022/03/29 01:53:22;;;;;;;27.87;17.80;;;7.20;99.90;;;;;;4992997;28;20464;-69
2022/03/29 01:56:12;;;;;;;27.13;16.43;;;7.20;99.90;;;;;;4993891;28;20599;-69
2022/03/29 01:59:04;;;;;;;22.37;16.47;;;7.20;99.90;;;;;;4990317;28;20452;-69
2022/03/29 02:01:52;;;;;;;20.60;16.30;;;7.20;99.90;;;;;;4997116;28;20987;-69
2022/03/29 02:04:40;;;;;;;19.90;15.17;;;7.20;99.90;;;;;;4999327;28;20472;-69
2022/03/29 02:07:29;;;;;;;21.73;15.47;;;7.20;99.90;;;;;;5000028;28;20484;-69
2022/03/29 02:10:17;;;;;;;21.20;15.90;;;7.20;99.90;;;;;;5002343;28;20495;-68
2022/03/29 02:13:09;;;;;;;23.60;14.70;;;7.20;99.90;;;;;;5001449;28;20938;-68
2022/03/29 02:15:57;;;;;;;15.97;12.17;;;7.20;99.90;;;;;;4995610;28;20542;-69
2022/03/29 02:18:45;;;;;;;19.00;12.50;;;7.20;99.90;;;;;;5000991;28;20460;-69
2022/03/29 02:21:34;;;;;;;17.23;10.67;;;7.20;99.90;;;;;;4995609;28;20577;-69
2022/03/29 02:24:23;;;;;;;14.83;11.20;;;7.20;99.90;;;;;;5001899;28;20554;-69
2022/03/29 02:27:11;;;;;;;14.10;10.30;;;7.20;99.90;;;;;;4993014;28;20495;-68
2022/03/29 02:30:00;;;;;;;20.80;10.97;;;7.20;99.90;;;;;;4992403;28;20647;-69
2022/03/29 02:32:49;;;;;;;14.93;10.53;;;7.20;99.90;;;;;;4993455;28;20853;-68
2022/03/29 02:35:37;;;;;;;18.47;11.97;;;7.20;99.90;;;;;;4996338;28;20464;-69
2022/03/29 02:38:25;;;;;;;13.57;12.13;;;7.20;99.90;;;;;;4996734;28;20499;-69
2022/03/29 02:41:13;;;;;;;16.23;11.57;;;7.20;99.90;;;;;;4996747;28;20541;-69
2022/03/29 02:44:02;;;;;;;15.77;12.00;;;7.20;99.90;;;;;;4990050;28;20480;-69
2022/03/29 02:46:52;;;;;;;15.60;11.10;;;7.30;99.90;;;;;;4992242;28;20460;-69
2022/03/29 02:49:40;;;;;;;15.70;10.57;;;7.20;99.90;;;;;;4999439;28;20710;-69
2022/03/29 02:52:29;;;;;;;15.27;10.30;;;7.20;99.90;;;;;;4997913;28;20549;-69
2022/03/29 02:55:18;;;;;;;16.87;10.27;;;7.10;99.90;;;;;;5002027;28;20488;-68
2022/03/29 02:58:07;;;;;;;14.70;10.33;;;7.10;99.90;;;;;;4995083;28;20477;-68
2022/03/29 03:00:55;;;;;;;10.77;8.30;;;7.10;99.90;;;;;;4990064;28;20548;-68
2022/03/29 03:03:44;;;;;;;11.77;8.60;;;7.00;99.90;;;;;;4993972;28;21079;-68
2022/03/29 03:06:32;;;;;;;10.37;7.80;;;7.00;99.90;;;;;;4993805;28;20444;-68
2022/03/29 03:09:21;;;;;;;12.10;8.37;;;7.00;99.90;;;;;;4995932;28;20837;-68
2022/03/29 03:12:10;;;;;;;10.93;8.50;;;6.90;99.90;;;;;;4987926;28;20464;-68
2022/03/29 03:14:58;;;;;;;13.20;9.00;;;6.90;99.90;;;;;;4993822;28;20465;-68
2022/03/29 03:17:47;;;;;;;13.40;8.67;;;6.80;99.90;;;;;;4995150;28;20555;-68
2022/03/29 03:20:36;;;;;;;11.47;9.30;;;6.80;99.90;;;;;;4993388;28;20485;-68
2022/03/29 03:23:25;;;;;;;14.43;9.40;;;6.70;99.90;;;;;;4995115;28;20473;-68
2022/03/29 03:26:14;;;;;;;14.60;8.67;;;6.70;99.90;;;;;;4998324;28;20473;-68
2022/03/29 03:29:02;;;;;;;14.37;9.10;;;6.60;99.90;;;;;;4996990;28;20459;-68
2022/03/29 03:31:50;;;;;;;12.80;8.10;;;6.60;99.90;;;;;;4999989;28;20462;-68
2022/03/29 03:34:39;;;;;;;14.83;7.63;;;6.60;99.90;;;;;;5003869;28;20538;-68
2022/03/29 03:37:28;;;;;;;11.40;7.37;;;6.50;99.90;;;;;;4993867;28;21432;-68
2022/03/29 03:40:17;;;;;;;14.43;8.33;;;6.50;99.90;;;;;;4999153;28;20541;-68
2022/03/29 03:43:05;;;;;;;14.63;7.40;;;6.50;99.90;;;;;;4999052;28;20605;-68
2022/03/29 03:45:53;;;;;;;15.93;7.90;;;6.40;99.90;;;;;;4993180;28;20999;-68
2022/03/29 03:48:41;;;;;;;14.80;6.23;;;6.40;99.90;;;;;;4997461;28;20514;-68
2022/03/29 03:51:30;;;;;;;15.23;5.77;;;6.30;99.90;;;;;;4997788;28;20449;-68
2022/03/29 03:54:20;;;;;;;10.83;5.33;;;6.30;99.90;;;;;;5000001;28;20491;-68
2022/03/29 03:57:08;;;;;;;11.33;4.90;;;6.20;99.90;;;;;;4999183;28;20841;-69
2022/03/29 03:59:57;;;;;;;16.77;5.23;;;6.20;99.90;;;;;;5000844;28;20953;-68
2022/03/29 04:02:45;;;;;;;9.83;4.10;;;6.10;99.90;;;;;;4997101;28;20487;-69
2022/03/29 04:05:34;;;;;;;16.80;4.63;;;6.20;99.90;;;;;;4994985;28;21424;-68
2022/03/29 04:08:22;;;;;;;15.47;5.30;;;6.10;99.90;;;;;;4998596;28;20453;-68
2022/03/29 04:11:11;;;;;;;11.80;4.30;;;6.10;99.90;;;;;;4994905;28;20464;-68
2022/03/29 04:14:00;;;;;;;13.30;4.70;;;6.10;99.90;;;;;;4989717;28;20465;-69
2022/03/29 04:16:48;;;;;;;10.70;3.97;;;6.10;99.90;;;;;;4988266;28;20694;-69
2022/03/29 04:19:36;;;;;;;20.63;4.33;;;6.00;99.90;;;;;;4996120;28;20474;-69
2022/03/29 04:22:25;;;;;;;15.80;4.10;;;6.00;99.90;;;;;;4991248;28;20461;-69
2022/03/29 04:25:13;;;;;;;15.60;4.70;;;6.00;99.90;;;;;;4996801;28;20493;-69
2022/03/29 04:28:02;;;;;;;10.93;4.27;;;6.00;99.90;;;;;;4996839;28;21042;-69
2022/03/29 04:30:55;;;;;;;12.37;5.43;;;5.90;99.90;;;;;;4985467;28;20869;-69
2022/03/29 04:33:45;;;;;;;17.80;5.00;;;5.90;99.90;;;;;;4985411;28;20520;-69
2022/03/29 04:36:33;;;;;;;14.27;5.37;;;5.90;99.90;;;;;;4990971;28;21174;-68
2022/03/29 04:39:21;;;;;;;15.33;5.20;;;5.90;99.90;;;;;;4988222;28;20594;-68
2022/03/29 04:42:09;;;;;;;11.93;5.40;;;5.90;99.90;;;;;;4996265;28;20847;-69
2022/03/29 04:47:31;;;;;;;10.87;4.40;;;5.80;99.90;;;;;;4937453;28;20581;-70
2022/03/29 04:50:19;;;;;;;13.70;4.60;;;5.70;99.90;;;;;;4934017;28;20753;-70
2022/03/29 04:53:08;;;;;;;12.53;5.87;;;5.70;99.90;;;;;;4927737;28;20458;-70
2022/03/29 04:55:56;;;;;;;15.90;4.97;;;5.70;99.90;;;;;;4943140;28;20482;-70
2022/03/29 04:58:44;;;;;;;11.33;3.90;;;5.70;99.90;;;;;;4934836;28;20466;-70
2022/03/29 05:01:33;;;;;;;15.47;5.23;;;5.70;99.90;;;;;;4936524;28;20447;-72
2022/03/29 05:04:23;;;;;;;14.80;4.77;;;5.60;99.90;;;;;;4938529;28;20458;-70
2022/03/29 05:07:11;;;;;;;19.83;5.80;;;5.60;99.90;;;;;;4941307;28;20471;-71
2022/03/29 05:09:59;;;;;;;15.27;4.30;;;5.60;99.90;;;;;;4937209;28;20572;-70
2022/03/29 05:12:49;;;;;;;12.73;4.30;;;5.60;99.90;;;;;;4920854;28;20525;-72
2022/03/29 05:15:37;;;;;;;17.70;5.13;;;5.50;99.90;;;;;;4933855;28;20482;-71
2022/03/29 05:18:25;;;;;;;13.43;4.03;;;5.60;99.90;;;;;;4942385;28;20541;-71
2022/03/29 05:21:15;;;;;;;15.27;5.10;;;5.50;99.90;;;;;;4937087;28;20471;-71
2022/03/29 05:24:03;;;;;;;13.73;4.13;;;5.50;99.90;;;;;;4941851;28;20538;-71
2022/03/29 05:26:51;;;;;;;14.47;3.60;;;5.50;99.90;;;;;;4943369;28;20573;-70
2022/03/29 05:29:39;;;;;;;9.87;5.93;;;5.50;99.90;;;;;;4940471;29;20973;-71
2022/03/29 05:32:27;;;;;;;13.77;4.50;;;5.50;99.90;;;;;;4948928;28;20471;-70
2022/03/29 05:35:16;;;;;;;11.73;4.10;;;5.50;99.90;;;;;;4945830;29;20484;-72
2022/03/29 05:38:06;;;;;;;20.17;4.33;;;5.50;99.90;;;;;;4937267;28;20960;-72
2022/03/29 05:40:54;;;;;;;15.03;3.80;;;5.60;99.90;;;;;;4945383;28;20451;-73
2022/03/29 05:43:42;;;;;;;11.57;3.53;;;5.50;99.90;;;;;;4944976;28;20447;-72
2022/03/29 05:49:36;;;;;;;13.40;4.00;;;5.50;99.90;;;;;;4933506;28;20451;-73
2022/03/29 05:52:25;;;;;;;12.93;3.80;;;5.50;99.90;;;;;;4944580;28;20538;-72
2022/03/29 05:55:20;;;;;;;14.23;3.60;;;5.50;99.90;;;;;;4948874;28;20480;-72
2022/03/29 05:58:08;;;;;;;10.53;3.33;;;5.40;99.90;;;;;;4940300;28;20811;-73
2022/03/29 06:00:56;;;;;;;12.80;4.10;;;5.50;99.90;;;;;;4940312;28;20499;-71
2022/03/29 06:03:44;;;;;;;11.60;4.03;;;5.50;99.90;;;;;;4937858;28;21016;-70
2022/03/29 06:06:33;;;;;;;16.30;4.67;;;5.50;99.90;;;;;;4946618;28;20507;-71
2022/03/29 06:09:21;;;;;;;8.50;3.50;;;5.50;99.90;;;;;;4941141;28;20538;-71
2022/03/29 06:12:11;;;;;;;14.97;3.47;;;5.50;99.90;;;;;;4947962;29;20479;-72
2022/03/29 06:15:02;;;;;;;9.70;3.90;;;5.50;99.90;;;;;;4950531;29;20495;-71
2022/03/29 06:17:50;;;;;;;12.10;4.07;;;5.40;99.90;;;;;;4947270;29;20532;-71
2022/03/29 06:20:38;;;;;;;12.33;4.10;;;5.40;99.90;;;;;;4953230;28;20507;-71
2022/03/29 06:23:27;;;;;;;13.30;3.20;;;5.40;99.90;;;;;;4949996;29;20546;-73
2022/03/29 06:26:15;;;;;;;8.90;2.67;;;5.40;99.90;;;;;;4948146;28;20549;-73
2022/03/29 06:29:04;;;;;;;18.70;3.93;;;5.40;99.90;;;;;;4944242;29;20463;-71
2022/03/29 06:31:56;;;;;;;11.60;3.50;;;5.50;99.90;;;;;;4941007;28;20466;-72
2022/03/29 06:34:44;;;;;;;12.67;3.20;;;5.40;99.90;;;;;;4948230;29;20455;-71
2022/03/29 06:37:32;;;;;;;15.40;3.93;;;5.40;99.90;;;;;;4949422;29;20519;-71
2022/03/29 06:40:22;;;;;;;12.50;3.63;;;5.40;99.90;;;;;;4952232;29;20870;-71
2022/03/29 06:43:10;;;;;;;15.53;4.20;;;5.50;99.90;;;;;;4947158;28;20564;-72
2022/03/29 06:46:01;;;;;;;13.20;3.27;;;5.60;99.90;;;;;;4946186;28;20510;-71
2022/03/29 06:48:50;;;;;;;11.03;3.00;;;5.70;99.90;;;;;;4946048;28;20459;-71
2022/03/29 06:51:38;;;;;;;15.53;3.03;;;5.70;99.90;;;;;;4947044;28;21157;-71
2022/03/29 06:54:26;;;;;;;7.60;2.73;;;5.70;99.90;;;;;;4945096;29;20459;-72
2022/03/29 06:57:15;;;;;;;7.70;2.40;;;5.70;99.90;;;;;;4947310;29;20812;-72
2022/03/29 07:00:05;;;;;;;10.67;3.00;;;5.70;99.90;;;;;;4944323;28;20459;-71
2022/03/29 07:02:55;;;;;;;14.63;4.00;;;5.70;99.90;;;;;;4952541;29;20455;-69
2022/03/29 07:05:46;;;;;;;8.50;2.50;;;5.80;99.90;;;;;;4939313;28;20483;-69
2022/03/29 07:08:35;;;;;;;8.90;2.70;;;5.80;99.90;;;;;;4946394;28;20883;-70
2022/03/29 07:11:24;;;;;;;8.17;2.63;;;5.80;99.90;;;;;;4949315;29;20524;-70
2022/03/29 07:14:12;;;;;;;9.90;2.43;;;5.80;99.90;;;;;;4948556;29;20467;-70
2022/03/29 07:17:04;;;;;;;6.80;2.80;;;5.90;99.90;;;;;;4943465;28;20526;-70
2022/03/29 07:19:54;;;;;;;8.60;2.87;;;5.90;99.90;;;;;;4947261;29;22622;-70
2022/03/29 07:22:43;;;;;;;8.73;2.73;;;5.90;99.90;;;;;;4948528;28;20465;-70
2022/03/29 07:25:32;;;;;;;8.60;2.40;;;6.00;99.90;;;;;;4950558;28;20494;-70
2022/03/29 07:28:23;;;;;;;7.50;2.20;;;6.00;99.90;;;;;;4947818;28;20556;-71
2022/03/29 07:31:11;;;;;;;5.50;2.27;;;6.00;99.90;;;;;;4941413;28;21060;-71
2022/03/29 07:34:00;;;;;;;12.23;2.40;;;6.00;99.90;;;;;;4945744;29;20451;-71
2022/03/29 07:36:49;;;;;;;7.90;2.20;;;6.10;99.90;;;;;;4941257;28;20539;-71
2022/03/29 07:39:38;;;;;;;9.37;2.60;;;6.20;99.90;;;;;;4943635;29;20451;-70
2022/03/29 07:42:27;;;;;;;6.70;2.20;;;6.30;99.90;;;;;;4947214;28;20819;-71
2022/03/29 07:45:16;;;;;;;5.13;1.77;;;6.30;99.90;;;;;;4941279;28;20636;-71
2022/03/29 07:48:05;;;;;;;6.13;3.03;;;6.30;99.90;;;;;;4945729;29;20475;-71
2022/03/29 07:51:13;;;;;;;6.90;1.97;;;6.30;99.90;;;;;;4945911;28;20454;-71
2022/03/29 07:54:03;;;;;;;12.47;2.70;;;6.40;99.90;;;;;;4946916;29;20497;-71
2022/03/29 07:56:51;;;;;;;8.77;3.00;;;6.50;99.90;;;;;;4948461;28;20479;-71
2022/03/29 07:59:40;;;;;;;7.33;1.70;;;6.50;99.90;;;;;;4944638;28;20550;-72
2022/03/29 08:02:28;;;;;;;8.67;2.27;;;6.60;99.90;;;;;;4944218;28;21033;-71
2022/03/29 08:05:16;;;;;;;11.27;2.63;;;6.70;99.90;;;;;;4946648;28;20962;-72
2022/03/29 08:08:06;;;;;;;6.67;1.37;;;6.70;99.90;;;;;;4942153;28;20599;-72
2022/03/29 08:10:56;;;;;;;6.10;2.10;;;6.70;99.90;;;;;;4945589;28;20459;-71
2022/03/29 08:13:46;;;;;;;4.50;2.33;;;6.80;99.90;;;;;;4943662;28;20973;-71
2022/03/29 08:16:34;;;;;;;8.00;2.20;;;6.90;99.90;;;;;;4945871;28;20510;-73
2022/03/29 08:19:22;;;;;;;7.03;2.77;;;6.90;99.90;;;;;;4943004;29;20563;-72
2022/03/29 08:22:10;;;;;;;5.27;1.97;;;6.90;99.90;;;;;;4948530;28;21087;-72
2022/03/29 08:24:59;;;;;;;7.73;1.50;;;6.90;99.90;;;;;;4946951;28;20668;-71
2022/03/29 08:27:49;;;;;;;9.47;2.97;;;7.00;99.90;;;;;;4953328;29;20557;-71
2022/03/29 08:30:37;;;;;;;8.03;2.77;;;7.00;99.90;;;;;;4946244;29;20466;-71
2022/03/29 08:33:26;;;;;;;6.77;2.50;;;7.00;99.90;;;;;;4944132;28;20534;-71
2022/03/29 08:36:14;;;;;;;7.80;2.83;;;7.10;99.90;;;;;;4944814;29;21008;-71
2022/03/29 08:39:03;;;;;;;4.93;1.70;;;7.10;99.90;;;;;;4939969;29;20522;-70
2022/03/29 08:41:58;;;;;;;4.97;2.27;;;7.20;99.90;;;;;;4946906;28;20459;-71
2022/03/29 08:44:47;;;;;;;8.00;2.47;;;7.20;99.90;;;;;;4943844;29;20447;-70
2022/03/29 08:47:36;;;;;;;8.30;2.37;;;7.20;99.90;;;;;;4944166;29;21004;-70
2022/03/29 08:50:26;;;;;;;5.87;2.40;;;7.20;99.90;;;;;;4948407;28;20546;-70
2022/03/29 08:53:17;;;;;;;4.77;2.00;;;7.30;99.90;;;;;;4939874;29;20459;-70
2022/03/29 08:56:06;;;;;;;3.37;1.93;;;7.30;99.90;;;;;;4942915;28;20912;-70
2022/03/29 08:58:56;;;;;;;9.87;2.17;;;7.40;99.90;;;;;;4948643;28;20487;-70
2022/03/29 09:01:45;;;;;;;4.97;2.20;;;7.40;99.90;;;;;;4942352;28;20448;-71
2022/03/29 09:04:34;;;;;;;7.50;2.30;;;7.50;99.90;;;;;;4942053;28;20830;-71
2022/03/29 09:07:22;;;;;;;6.37;2.47;;;7.60;99.90;;;;;;4940012;28;20929;-71
2022/03/29 09:10:12;;;;;;;9.43;2.13;;;7.70;99.90;;;;;;4937519;28;20964;-69
2022/03/29 09:13:15;;;;;;;7.57;2.00;;;7.70;99.90;;;;;;4941093;29;20526;-72
2022/03/29 09:16:05;;;;;;;3.80;1.80;;;7.60;99.90;;;;;;4944135;28;20500;-72
2022/03/29 09:18:56;;;;;;;5.97;2.20;;;7.70;99.90;;;;;;4942099;28;20458;-72
2022/03/29 09:21:45;;;;;;;7.20;2.00;;;7.70;99.90;;;;;;4943565;28;21062;-72
2022/03/29 09:24:36;;;;;;;4.80;1.47;;;7.80;99.90;;;;;;4941858;28;20489;-70
2022/03/29 09:27:24;;;;;;;6.43;2.37;;;7.90;99.90;;;;;;4942091;29;20507;-71
2022/03/29 09:30:38;;;;;;;5.53;2.53;;;8.00;99.90;;;;;;4944001;28;20447;-72
2022/03/29 09:33:30;;;;;;;6.10;2.17;;;8.10;99.90;;;;;;4943351;28;20435;-70
2022/03/29 09:36:21;;;;;;;10.13;2.50;;;8.20;99.90;;;;;;4945204;28;20467;-72
2022/03/29 09:39:09;;;;;;;7.63;2.47;;;8.30;99.90;;;;;;4937683;29;20723;-71
2022/03/29 09:41:59;;;;;;;6.80;2.63;;;8.30;99.90;;;;;;4944479;28;20451;-71
2022/03/29 09:44:49;;;;;;;6.67;2.13;;;8.30;99.90;;;;;;4945107;29;20459;-71
2022/03/29 09:47:37;;;;;;;9.77;2.60;;;8.40;99.90;;;;;;4940776;29;20567;-71
2022/03/29 09:50:26;;;;;;;8.10;2.47;;;8.40;99.90;;;;;;4944655;29;20447;-71
2022/03/29 09:53:33;;;;;;;6.60;2.40;;;8.40;99.90;;;;;;4940985;28;20831;-70
2022/03/29 09:56:26;;;;;;;6.23;1.87;;;8.40;99.90;;;;;;4944878;28;20841;-71
2022/03/29 09:59:36;;;;;;;3.20;2.00;;;8.40;99.90;;;;;;4942910;28;20773;-72
2022/03/29 10:02:34;;;;;;;6.97;2.20;;;8.50;99.90;;;;;;4944725;28;20524;-70
2022/03/29 10:05:24;;;;;;;5.67;2.23;;;8.50;99.90;;;;;;4946810;28;20471;-70
2022/03/29 10:11:27;;;;;;;3.30;1.97;;;8.60;99.90;;;;;;4945869;28;20451;-71
2022/03/29 10:14:17;;;;;;;6.70;2.23;;;8.70;99.90;;;;;;4946189;29;20439;-70
2022/03/29 10:17:06;;;;;;;5.60;2.03;;;8.80;99.90;;;;;;4947881;28;20585;-71
2022/03/29 10:19:56;;;;;;;5.63;1.80;;;8.80;99.90;;;;;;4950187;29;20465;-70
2022/03/29 10:22:44;;;;;;;4.60;1.80;;;8.80;99.90;;;;;;4950194;29;20500;-72
2022/03/29 10:25:33;;;;;;;3.93;2.00;;;8.90;99.90;;;;;;4948455;28;20908;-71
2022/03/29 10:28:26;;;;;;;7.33;2.40;;;9.00;99.90;;;;;;4947733;29;20894;-71
2022/03/29 10:31:28;;;;;;;5.20;1.97;;;9.00;99.90;;;;;;4946014;28;20947;-72
2022/03/29 10:34:20;;;;;;;4.93;1.97;;;9.00;99.90;;;;;;4948926;28;20492;-72
2022/03/29 10:37:11;;;;;;;4.53;1.70;;;9.10;99.90;;;;;;4949251;28;20944;-72
2022/03/29 10:40:03;;;;;;;6.63;2.03;;;9.20;99.90;;;;;;4941189;28;20555;-70
2022/03/29 10:42:51;;;;;;;5.07;1.83;;;9.40;99.90;;;;;;4940777;28;20479;-71
2022/03/29 10:45:40;;;;;;;5.67;2.00;;;9.50;99.90;;;;;;4961376;23;20546;-68
2022/03/29 10:48:28;;;;;;;8.90;2.00;;;9.50;99.90;;;;;;4957784;28;20976;-68
2022/03/29 10:51:24;;;;;;;4.83;2.03;;;9.50;99.90;;;;;;4950092;28;20465;-68
2022/03/29 10:54:27;;;;;;;4.57;2.03;;;9.50;99.90;;;;;;4954170;29;20456;-68
2022/03/29 10:57:20;;;;;;;6.60;2.23;;;9.60;99.90;;;;;;4950962;28;20466;-68
2022/03/29 11:00:22;;;;;;;4.20;1.63;;;9.70;99.90;;;;;;4949325;29;20498;-67
2022/03/29 11:03:20;;;;;;;6.90;1.60;;;9.60;99.90;;;;;;4955371;28;20967;-67
2022/03/29 11:06:11;;;;;;;3.60;1.83;;;9.70;99.90;;;;;;4946007;28;20491;-67
2022/03/29 11:09:04;;;;;;;7.03;1.90;;;9.70;99.90;;;;;;4947915;28;20482;-67
2022/03/29 11:11:52;;;;;;;5.77;2.30;;;9.90;99.90;;;;;;4946482;28;20905;-67
2022/03/29 11:14:41;;;;;;;6.27;2.50;;;10.00;99.90;;;;;;4948771;29;20585;-67
2022/03/29 11:17:40;;;;;;;4.30;1.53;;;10.00;99.90;;;;;;4948222;28;20983;-67
2022/03/29 11:20:32;;;;;;;3.90;1.90;;;10.00;99.90;;;;;;4953558;28;20475;-68
2022/03/29 11:23:31;;;;;;;4.50;1.70;;;10.00;99.90;;;;;;4945808;28;20459;-67
2022/03/29 11:26:19;;;;;;;7.03;2.03;;;10.00;99.90;;;;;;4941316;28;20856;-67
2022/03/29 11:29:09;;;;;;;6.07;2.00;;;10.20;99.90;;;;;;4947006;28;20545;-67
2022/03/29 11:32:01;;;;;;;2.70;1.73;;;10.30;99.90;;;;;;4950230;28;20617;-67
2022/03/29 11:34:53;;;;;;;4.60;1.60;;;10.50;99.90;;;;;;4942956;28;20772;-68
2022/03/29 11:37:45;;;;;;;5.17;1.40;;;10.70;99.90;;;;;;4948754;28;20582;-68
2022/03/29 11:40:37;;;;;;;3.17;1.47;;;10.80;99.90;;;;;;4945639;29;20491;-67
2022/03/29 11:43:26;;;;;;;7.47;1.90;;;10.90;99.90;;;;;;4950808;29;20490;-67
2022/03/29 11:46:14;;;;;;;5.10;1.60;;;10.90;99.90;;;;;;4942123;28;20822;-67
2022/03/29 11:49:03;;;;;;;7.23;1.90;;;10.90;99.90;;;;;;4951253;28;20485;-68
2022/03/29 11:52:05;;;;;;;3.67;1.60;;;11.10;99.90;;;;;;4939724;28;20491;-67
2022/03/29 11:54:55;;;;;;;2.97;1.60;;;11.20;99.90;;;;;;4944959;28;20447;-67
2022/03/29 11:57:44;;;;;;;7.97;1.83;;;11.30;99.90;;;;;;4953689;28;21000;-67
2022/03/29 12:00:34;;;;;;;5.97;1.80;;;11.40;99.90;;;;;;4943996;28;20971;-68
2022/03/29 12:03:34;;;;;;;4.23;1.67;;;11.50;99.90;;;;;;4944949;28;20455;-68
2022/03/29 12:06:25;;;;;;;5.13;1.70;;;11.60;99.90;;;;;;4934343;28;20487;-68
2022/03/29 12:09:16;;;;;;;6.07;1.70;;;11.70;99.90;;;;;;4941563;28;20478;-69
2022/03/29 12:12:06;;;;;;;4.63;1.90;;;11.80;99.90;;;;;;4942943;29;20471;-69
2022/03/29 12:15:01;;;;;;;4.13;1.53;;;12.10;99.90;;;;;;4937780;28;20489;-69
2022/03/29 12:18:40;;;;;;;3.10;1.50;;;12.10;99.90;;;;;;4935647;28;20987;-69
2022/03/29 12:21:11;;;;;;;6.03;1.70;;;12.10;99.90;;;;;;4936305;28;20577;-69
2022/03/29 12:24:02;;;;;;;3.50;1.57;;;12.20;99.90;;;;;;4935593;28;20516;-69
2022/03/29 12:26:53;;;;;;;5.13;2.40;;;12.20;99.90;;;;;;4935252;29;20529;-69
2022/03/29 12:29:46;;;;;;;3.47;1.43;;;12.40;99.90;;;;;;4944725;29;20489;-68
2022/03/29 12:32:41;;;;;;;5.23;1.60;;;12.40;99.90;;;;;;4945909;28;20455;-69
2022/03/29 12:35:31;;;;;;;3.97;1.30;;;12.50;99.90;;;;;;4936198;28;20548;-69
2022/03/29 12:38:19;;;;;;;4.90;1.77;;;12.50;99.90;;;;;;4938585;28;21034;-69
2022/03/29 12:41:08;;;;;;;3.10;1.47;;;12.60;99.90;;;;;;4936902;29;20539;-69
2022/03/29 12:43:56;;;;;;;4.63;1.70;;;12.70;99.90;;;;;;4937638;28;21482;-68
2022/03/29 12:46:46;;;;;;;5.80;2.50;;;12.80;99.90;;;;;;4935559;28;20512;-69
2022/03/29 12:49:35;;;;;;;7.20;2.10;;;12.80;99.90;;;;;;4947257;28;20550;-69
2022/03/29 12:52:23;;;;;;;5.73;1.80;;;12.90;99.90;;;;;;4946452;28;20834;-69
2022/03/29 12:55:16;;;;;;;4.03;1.50;;;13.00;99.90;;;;;;4945175;29;20542;-69
2022/03/29 12:58:06;;;;;;;4.30;1.50;;;13.10;99.90;;;;;;4952352;28;20866;-69
2022/03/29 13:00:55;;;;;;;2.30;1.47;;;13.20;99.90;;;;;;4942064;28;20509;-68
2022/03/29 13:03:45;;;;;;;2.87;1.30;;;13.50;99.90;;;;;;4942822;28;20489;-69
2022/03/29 13:06:41;;;;;;;4.97;1.47;;;13.80;99.90;;;;;;4945994;28;21011;-69
2022/03/29 13:09:29;;;;;;;3.40;1.30;;;14.20;99.90;;;;;;4948257;29;20585;-69
2022/03/29 13:12:19;;;;;;;3.67;1.50;;;15.00;99.90;;;;;;4946924;29;20700;-69
2022/03/29 13:15:09;;;;;;;5.73;1.90;;;15.60;99.90;;;;;;4950350;29;20986;-69
2022/03/29 13:17:57;;;;;;;5.67;1.80;;;15.80;99.90;;;;;;4956885;28;20481;-69
2022/03/29 13:20:47;;;;;;;5.40;1.77;;;16.10;99.90;;;;;;4946524;28;20495;-70
2022/03/29 13:23:37;;;;;;;3.70;1.50;;;16.10;99.90;;;;;;4944785;28;20516;-69
2022/03/29 13:26:28;;;;;;;4.50;1.87;;;16.80;99.90;;;;;;4957612;29;20520;-69
2022/03/29 13:29:18;;;;;;;5.87;2.13;;;17.00;99.90;;;;;;4954046;29;20491;-69
2022/03/29 13:32:08;;;;;;;2.83;2.00;;;16.80;99.90;;;;;;4953988;28;20462;-69
2022/03/29 13:34:56;;;;;;;7.40;2.40;;;17.30;99.90;;;;;;4939074;29;20487;-70
2022/03/29 13:37:46;;;;;;;3.87;2.23;;;17.90;99.90;;;;;;4949400;28;20956;-69
2022/03/29 13:40:34;;;;;;;4.37;1.90;;;17.50;99.90;;;;;;4947720;28;20820;-69
2022/03/29 13:43:22;;;;;;;5.37;1.80;;;17.50;99.90;;;;;;4948699;28;20491;-69
2022/03/29 13:46:12;;;;;;;4.57;1.70;;;17.30;99.90;;;;;;4952983;28;20490;-69
2022/03/29 13:49:25;;;;;;;5.80;1.80;;;16.90;99.90;;;;;;4953378;28;20545;-69
2022/03/29 13:52:13;;;;;;;5.70;1.90;;;17.10;99.90;;;;;;4949906;28;20542;-69
2022/03/29 13:55:03;;;;;;;3.50;1.50;;;17.20;99.90;;;;;;4952810;28;20447;-70
2022/03/29 13:57:51;;;;;;;4.23;1.93;;;17.00;99.00;;;;;;4947596;28;20558;-69
2022/03/29 14:00:40;;;;;;;3.07;1.80;;;17.00;99.90;;;;;;4951632;28;20940;-69
2022/03/29 14:03:29;;;;;;;6.23;1.80;;;16.90;99.60;;;;;;4951215;28;20451;-69
2022/03/29 14:06:19;;;;;;;2.80;1.27;;;17.00;99.70;;;;;;4937332;28;20471;-70
2022/03/29 14:09:07;;;;;;;4.07;1.53;;;16.70;99.00;;;;;;4948190;28;20960;-69
2022/03/29 14:11:57;;;;;;;4.03;1.70;;;16.40;98.70;;;;;;4950333;28;20457;-69
2022/03/29 14:14:46;;;;;;;2.97;1.70;;;16.00;99.20;;;;;;4940150;28;20451;-69
2022/03/29 14:17:34;;;;;;;3.13;1.30;;;15.60;99.30;;;;;;4941155;28;20491;-69
2022/03/29 14:20:23;;;;;;;3.43;1.30;;;15.30;99.30;;;;;;4943804;28;20464;-69
2022/03/29 14:23:12;;;;;;;5.37;1.80;;;15.00;99.90;;;;;;4947713;28;20451;-69
2022/03/29 14:26:00;;;;;;;2.50;1.37;;;14.70;99.90;;;;;;4944326;28;21215;-69
2022/03/29 14:28:50;;;;;;;3.67;1.37;;;14.40;99.90;;;;;;4945208;28;20478;-69
2022/03/29 14:31:38;;;;;;;2.27;1.20;;;14.00;99.90;;;;;;4944241;28;20530;-69
2022/03/29 14:34:26;;;;;;;2.10;1.63;;;13.90;99.90;;;;;;4951074;28;20954;-69
2022/03/29 14:37:14;;;;;;;4.13;1.77;;;13.40;99.90;;;;;;4953925;29;20562;-68
2022/03/29 14:40:05;;;;;;;3.20;1.07;;;13.20;99.90;;;;;;4946635;28;20546;-69
2022/03/29 14:42:53;;;;;;;4.27;1.50;;;13.10;99.90;;;;;;4949125;28;20541;-69
2022/03/29 14:45:43;;;;;;;4.90;1.77;;;13.10;99.90;;;;;;4951807;28;20523;-69
2022/03/29 14:48:33;;;;;;;4.47;1.60;;;13.30;99.90;;;;;;4943393;28;20998;-69
2022/03/29 14:51:26;;;;;;;4.77;1.80;;;13.30;99.90;;;;;;4945759;28;20467;-69
2022/03/29 14:54:14;;;;;;;3.10;1.33;;;13.20;99.90;;;;;;4921559;28;20971;-69
2022/03/29 14:57:03;;;;;;;3.30;1.60;;;13.30;99.90;;;;;;4942420;28;20498;-69